sensor_id;sensor_type;location;lat;lon;timestamp;temperature;humidity
37222;DHT22;23119;51.842;-2.230;2023-07-30T00:00:42;16.80;99.90
37222;DHT22;23119;51.842;-2.230;2023-07-30T00:03:08;16.80;99.90
37222;DHT22;23119;51.842;-2.230;2023-07-30T00:05:37;16.80;99.90
37222;DHT22;23119;51.842;-2.230;2023-07-30T00:08:05;16.70;99.90
37222;DHT22;23119;51.842;-2.230;2023-07-30T00:10:39;16.80;99.90
37222;DHT22;23119;51.842;-2.230;2023-07-30T00:13:05;16.80;99.90
37222;DHT22;23119;51.842;-2.230;2023-07-30T00:15:30;16.80;99.90
37222;DHT22;23119;51.842;-2.230;2023-07-30T00:17:56;16.80;99.90
37222;DHT22;23119;51.842;-2.230;2023-07-30T00:20:27;16.80;99.90
37222;DHT22;23119;51.842;-2.230;2023-07-30T00:22:53;16.80;99.90
37222;DHT22;23119;51.842;-2.230;2023-07-30T00:25:18;16.70;99.90
37222;DHT22;23119;51.842;-2.230;2023-07-30T00:27:44;16.70;99.90
37222;DHT22;23119;51.842;-2.230;2023-07-30T00:30:12;16.70;99.90
37222;DHT22;23119;51.842;-2.230;2023-07-30T00:32:41;16.70;99.90
37222;DHT22;23119;51.842;-2.230;2023-07-30T00:35:09;16.70;99.90
37222;DHT22;23119;51.842;-2.230;2023-07-30T00:37:38;16.60;99.90
37222;DHT22;23119;51.842;-2.230;2023-07-30T00:40:06;16.60;99.90
37222;DHT22;23119;51.842;-2.230;2023-07-30T00:42:32;16.50;99.90
37222;DHT22;23119;51.842;-2.230;2023-07-30T00:44:58;16.50;99.90
37222;DHT22;23119;51.842;-2.230;2023-07-30T00:47:26;16.40;99.90
37222;DHT22;23119;51.842;-2.230;2023-07-30T00:49:53;16.40;99.90
37222;DHT22;23119;51.842;-2.230;2023-07-30T00:52:21;16.30;99.90
37222;DHT22;23119;51.842;-2.230;2023-07-30T00:54:48;16.30;99.90
37222;DHT22;23119;51.842;-2.230;2023-07-30T00:57:15;16.30;99.90
37222;DHT22;23119;51.842;-2.230;2023-07-30T00:59:41;16.20;99.90
37222;DHT22;23119;51.842;-2.230;2023-07-30T01:02:07;16.20;99.90
37222;DHT22;23119;51.842;-2.230;2023-07-30T01:04:36;16.20;99.90
37222;DHT22;23119;51.842;-2.230;2023-07-30T01:07:03;16.10;99.90
37222;DHT22;23119;51.842;-2.230;2023-07-30T01:09:29;16.10;99.90
37222;DHT22;23119;51.842;-2.230;2023-07-30T01:11:55;16.10;99.90
37222;DHT22;23119;51.842;-2.230;2023-07-30T01:14:30;16.10;99.90
37222;DHT22;23119;51.842;-2.230;2023-07-30T01:16:56;16.10;99.90
37222;DHT22;23119;51.842;-2.230;2023-07-30T01:19:22;16.00;99.90
37222;DHT22;23119;51.842;-2.230;2023-07-30T01:21:47;16.00;99.90
37222;DHT22;23119;51.842;-2.230;2023-07-30T01:24:13;16.00;99.90
37222;DHT22;23119;51.842;-2.230;2023-07-30T01:26:44;16.00;99.90
37222;DHT22;23119;51.842;-2.230;2023-07-30T01:29:28;16.00;99.90
37222;DHT22;23119;51.842;-2.230;2023-07-30T01:32:06;15.90;99.90
37222;DHT22;23119;51.842;-2.230;2023-07-30T01:34:37;15.90;99.90
37222;DHT22;23119;51.842;-2.230;2023-07-30T01:37:05;15.90;99.90
37222;DHT22;23119;51.842;-2.230;2023-07-30T01:39:32;15.80;99.90
37222;DHT22;23119;51.842;-2.230;2023-07-30T01:42:04;15.90;99.90
37222;DHT22;23119;51.842;-2.230;2023-07-30T01:44:30;15.90;99.90
37222;DHT22;23119;51.842;-2.230;2023-07-30T01:46:56;15.80;99.90
37222;DHT22;23119;51.842;-2.230;2023-07-30T01:49:23;15.80;99.90
37222;DHT22;23119;51.842;-2.230;2023-07-30T01:51:54;15.80;99.90
37222;DHT22;23119;51.842;-2.230;2023-07-30T01:54:20;15.90;99.90
37222;DHT22;23119;51.842;-2.230;2023-07-30T01:56:45;15.80;99.90
37222;DHT22;23119;51.842;-2.230;2023-07-30T01:59:11;15.80;99.90
37222;DHT22;23119;51.842;-2.230;2023-07-30T02:01:37;15.80;99.90
37222;DHT22;23119;51.842;-2.230;2023-07-30T02:04:06;15.80;99.90
37222;DHT22;23119;51.842;-2.230;2023-07-30T02:06:32;15.80;99.90
37222;DHT22;23119;51.842;-2.230;2023-07-30T02:09:01;15.80;99.90
37222;DHT22;23119;51.842;-2.230;2023-07-30T02:11:29;15.90;99.90
37222;DHT22;23119;51.842;-2.230;2023-07-30T02:13:58;15.90;99.90
37222;DHT22;23119;51.842;-2.230;2023-07-30T02:16:24;15.90;99.90
37222;DHT22;23119;51.842;-2.230;2023-07-30T02:18:49;15.90;99.90
37222;DHT22;23119;51.842;-2.230;2023-07-30T02:21:18;15.90;99.90
37222;DHT22;23119;51.842;-2.230;2023-07-30T02:23:43;15.90;99.90
37222;DHT22;23119;51.842;-2.230;2023-07-30T02:26:09;16.00;99.90
37222;DHT22;23119;51.842;-2.230;2023-07-30T02:28:37;16.00;99.90
37222;DHT22;23119;51.842;-2.230;2023-07-30T02:31:08;16.50;99.90
37222;DHT22;23119;51.842;-2.230;2023-07-30T02:33:34;16.00;99.90
37222;DHT22;23119;51.842;-2.230;2023-07-30T02:36:03;16.00;99.90
37222;DHT22;23119;51.842;-2.230;2023-07-30T02:38:31;16.00;99.90
37222;DHT22;23119;51.842;-2.230;2023-07-30T02:40:57;16.00;99.90
37222;DHT22;23119;51.842;-2.230;2023-07-30T02:43:23;16.00;99.90
37222;DHT22;23119;51.842;-2.230;2023-07-30T02:45:49;16.00;99.90
37222;DHT22;23119;51.842;-2.230;2023-07-30T02:48:17;16.00;99.90
37222;DHT22;23119;51.842;-2.230;2023-07-30T02:50:45;16.00;99.90
37222;DHT22;23119;51.842;-2.230;2023-07-30T02:53:11;16.10;99.90
37222;DHT22;23119;51.842;-2.230;2023-07-30T02:55:37;16.10;99.90
37222;DHT22;23119;51.842;-2.230;2023-07-30T02:58:02;16.10;99.90
37222;DHT22;23119;51.842;-2.230;2023-07-30T03:00:45;16.10;99.90
37222;DHT22;23119;51.842;-2.230;2023-07-30T03:03:11;16.10;99.90
37222;DHT22;23119;51.842;-2.230;2023-07-30T03:05:37;16.00;99.90
37222;DHT22;23119;51.842;-2.230;2023-07-30T03:08:05;16.00;99.90
37222;DHT22;23119;51.842;-2.230;2023-07-30T03:10:31;16.00;99.90
37222;DHT22;23119;51.842;-2.230;2023-07-30T03:12:58;16.00;99.90
37222;DHT22;23119;51.842;-2.230;2023-07-30T03:15:24;15.90;99.90
37222;DHT22;23119;51.842;-2.230;2023-07-30T03:17:50;16.00;99.90
37222;DHT22;23119;51.842;-2.230;2023-07-30T03:20:16;16.00;99.90
37222;DHT22;23119;51.842;-2.230;2023-07-30T03:22:41;16.00;99.90
37222;DHT22;23119;51.842;-2.230;2023-07-30T03:25:07;15.90;99.90
37222;DHT22;23119;51.842;-2.230;2023-07-30T03:27:33;15.90;99.90
37222;DHT22;23119;51.842;-2.230;2023-07-30T03:30:01;15.90;99.90
37222;DHT22;23119;51.842;-2.230;2023-07-30T03:32:27;15.90;99.90
37222;DHT22;23119;51.842;-2.230;2023-07-30T03:34:53;15.90;99.90
37222;DHT22;23119;51.842;-2.230;2023-07-30T03:37:19;15.90;99.90
37222;DHT22;23119;51.842;-2.230;2023-07-30T03:39:44;15.90;99.90
37222;DHT22;23119;51.842;-2.230;2023-07-30T03:42:13;15.90;99.90
37222;DHT22;23119;51.842;-2.230;2023-07-30T03:44:41;15.90;99.90
37222;DHT22;23119;51.842;-2.230;2023-07-30T03:47:06;15.90;99.90
37222;DHT22;23119;51.842;-2.230;2023-07-30T03:49:34;15.90;99.90
37222;DHT22;23119;51.842;-2.230;2023-07-30T03:52:02;16.00;99.90
37222;DHT22;23119;51.842;-2.230;2023-07-30T03:54:31;16.00;99.90
37222;DHT22;23119;51.842;-2.230;2023-07-30T03:56:59;16.00;99.90
37222;DHT22;23119;51.842;-2.230;2023-07-30T03:59:26;16.00;99.90
37222;DHT22;23119;51.842;-2.230;2023-07-30T04:01:51;16.00;99.90
37222;DHT22;23119;51.842;-2.230;2023-07-30T04:04:17;16.00;99.90
37222;DHT22;23119;51.842;-2.230;2023-07-30T04:06:43;16.00;99.90
37222;DHT22;23119;51.842;-2.230;2023-07-30T04:09:11;16.00;99.90
37222;DHT22;23119;51.842;-2.230;2023-07-30T04:11:36;16.00;99.90
37222;DHT22;23119;51.842;-2.230;2023-07-30T04:14:05;16.00;99.90
37222;DHT22;23119;51.842;-2.230;2023-07-30T04:16:33;16.00;99.90
37222;DHT22;23119;51.842;-2.230;2023-07-30T04:19:04;16.00;99.90
37222;DHT22;23119;51.842;-2.230;2023-07-30T04:21:29;16.10;99.90
37222;DHT22;23119;51.842;-2.230;2023-07-30T04:23:58;16.10;99.90
37222;DHT22;23119;51.842;-2.230;2023-07-30T04:26:26;16.10;99.90
37222;DHT22;23119;51.842;-2.230;2023-07-30T04:28:54;16.10;99.90
37222;DHT22;23119;51.842;-2.230;2023-07-30T04:31:20;16.10;99.90
37222;DHT22;23119;51.842;-2.230;2023-07-30T04:33:46;16.10;99.90
37222;DHT22;23119;51.842;-2.230;2023-07-30T04:36:11;16.20;99.90
37222;DHT22;23119;51.842;-2.230;2023-07-30T04:38:40;16.20;99.90
37222;DHT22;23119;51.842;-2.230;2023-07-30T04:41:06;16.20;99.90
37222;DHT22;23119;51.842;-2.230;2023-07-30T04:43:32;16.20;99.90
37222;DHT22;23119;51.842;-2.230;2023-07-30T04:45:58;16.30;99.90
37222;DHT22;23119;51.842;-2.230;2023-07-30T04:48:23;16.30;99.90
37222;DHT22;23119;51.842;-2.230;2023-07-30T04:50:52;16.30;99.90
37222;DHT22;23119;51.842;-2.230;2023-07-30T04:53:20;16.40;99.90
37222;DHT22;23119;51.842;-2.230;2023-07-30T04:55:52;16.40;99.90
37222;DHT22;23119;51.842;-2.230;2023-07-30T04:58:23;16.50;99.90
37222;DHT22;23119;51.842;-2.230;2023-07-30T05:00:49;16.50;99.90
37222;DHT22;23119;51.842;-2.230;2023-07-30T05:03:17;16.50;99.90
37222;DHT22;23119;51.842;-2.230;2023-07-30T05:05:43;16.50;99.90
37222;DHT22;23119;51.842;-2.230;2023-07-30T05:08:11;16.50;99.90
37222;DHT22;23119;51.842;-2.230;2023-07-30T05:10:37;16.50;99.90
37222;DHT22;23119;51.842;-2.230;2023-07-30T05:13:04;16.50;99.90
37222;DHT22;23119;51.842;-2.230;2023-07-30T05:15:35;16.60;99.90
37222;DHT22;23119;51.842;-2.230;2023-07-30T05:18:01;16.60;99.90
37222;DHT22;23119;51.842;-2.230;2023-07-30T05:20:26;16.60;99.90
37222;DHT22;23119;51.842;-2.230;2023-07-30T05:22:52;16.70;99.90
37222;DHT22;23119;51.842;-2.230;2023-07-30T05:25:18;16.70;99.90
37222;DHT22;23119;51.842;-2.230;2023-07-30T05:27:46;16.80;99.90
37222;DHT22;23119;51.842;-2.230;2023-07-30T05:30:11;16.80;99.90
37222;DHT22;23119;51.842;-2.230;2023-07-30T05:32:37;16.80;99.90
37222;DHT22;23119;51.842;-2.230;2023-07-30T05:35:08;16.80;99.90
37222;DHT22;23119;51.842;-2.230;2023-07-30T05:37:34;16.90;99.90
37222;DHT22;23119;51.842;-2.230;2023-07-30T05:40:01;16.90;99.90
37222;DHT22;23119;51.842;-2.230;2023-07-30T05:42:30;16.90;99.90
37222;DHT22;23119;51.842;-2.230;2023-07-30T05:44:56;17.00;99.90
37222;DHT22;23119;51.842;-2.230;2023-07-30T05:47:24;17.00;99.90
37222;DHT22;23119;51.842;-2.230;2023-07-30T05:49:52;17.10;99.90
37222;DHT22;23119;51.842;-2.230;2023-07-30T05:52:18;17.10;99.90
37222;DHT22;23119;51.842;-2.230;2023-07-30T05:54:49;17.30;99.90
37222;DHT22;23119;51.842;-2.230;2023-07-30T05:57:17;17.40;99.90
37222;DHT22;23119;51.842;-2.230;2023-07-30T05:59:43;17.40;99.90
37222;DHT22;23119;51.842;-2.230;2023-07-30T06:02:17;17.50;99.90
37222;DHT22;23119;51.842;-2.230;2023-07-30T06:04:43;17.50;99.90
37222;DHT22;23119;51.842;-2.230;2023-07-30T06:07:10;17.50;99.90
37222;DHT22;23119;51.842;-2.230;2023-07-30T06:09:36;17.50;99.90
37222;DHT22;23119;51.842;-2.230;2023-07-30T06:12:05;17.60;99.90
37222;DHT22;23119;51.842;-2.230;2023-07-30T06:14:33;17.70;99.90
37222;DHT22;23119;51.842;-2.230;2023-07-30T06:16:58;17.70;99.90
37222;DHT22;23119;51.842;-2.230;2023-07-30T06:19:34;17.80;99.90
37222;DHT22;23119;51.842;-2.230;2023-07-30T06:22:03;17.90;99.90
37222;DHT22;23119;51.842;-2.230;2023-07-30T06:24:32;18.10;99.90
37222;DHT22;23119;51.842;-2.230;2023-07-30T06:27:00;18.50;99.90
37222;DHT22;23119;51.842;-2.230;2023-07-30T06:29:26;18.80;99.90
37222;DHT22;23119;51.842;-2.230;2023-07-30T06:32:06;19.30;99.90
37222;DHT22;23119;51.842;-2.230;2023-07-30T06:34:32;19.90;99.90
37222;DHT22;23119;51.842;-2.230;2023-07-30T06:37:02;20.30;99.90
37222;DHT22;23119;51.842;-2.230;2023-07-30T06:39:28;21.10;99.90
37222;DHT22;23119;51.842;-2.230;2023-07-30T06:41:54;23.40;99.90
37222;DHT22;23119;51.842;-2.230;2023-07-30T06:44:24;26.00;99.90
37222;DHT22;23119;51.842;-2.230;2023-07-30T06:46:50;28.30;98.10
37222;DHT22;23119;51.842;-2.230;2023-07-30T06:49:19;30.40;95.40
37222;DHT22;23119;51.842;-2.230;2023-07-30T06:51:44;32.10;92.90
37222;DHT22;23119;51.842;-2.230;2023-07-30T06:54:15;33.70;91.20
37222;DHT22;23119;51.842;-2.230;2023-07-30T06:56:41;35.10;88.70
37222;DHT22;23119;51.842;-2.230;2023-07-30T06:59:07;36.10;85.70
37222;DHT22;23119;51.842;-2.230;2023-07-30T07:01:38;37.00;82.10
37222;DHT22;23119;51.842;-2.230;2023-07-30T07:04:04;37.60;80.60
37222;DHT22;23119;51.842;-2.230;2023-07-30T07:06:31;38.30;78.80
37222;DHT22;23119;51.842;-2.230;2023-07-30T07:09:02;38.90;75.90
37222;DHT22;23119;51.842;-2.230;2023-07-30T07:11:28;39.50;75.10
37222;DHT22;23119;51.842;-2.230;2023-07-30T07:13:54;40.00;73.60
37222;DHT22;23119;51.842;-2.230;2023-07-30T07:16:29;40.50;71.60
37222;DHT22;23119;51.842;-2.230;2023-07-30T07:18:55;40.90;68.00
37222;DHT22;23119;51.842;-2.230;2023-07-30T07:21:23;41.00;68.60
37222;DHT22;23119;51.842;-2.230;2023-07-30T07:23:48;41.10;67.90
37222;DHT22;23119;51.842;-2.230;2023-07-30T07:26:20;41.30;67.50
37222;DHT22;23119;51.842;-2.230;2023-07-30T07:28:47;41.70;66.50
37222;DHT22;23119;51.842;-2.230;2023-07-30T07:31:17;41.70;65.60
37222;DHT22;23119;51.842;-2.230;2023-07-30T07:33:45;41.90;65.10
37222;DHT22;23119;51.842;-2.230;2023-07-30T07:36:11;41.80;64.70
37222;DHT22;23119;51.842;-2.230;2023-07-30T07:38:39;41.90;64.50
37222;DHT22;23119;51.842;-2.230;2023-07-30T07:41:05;42.00;63.90
37222;DHT22;23119;51.842;-2.230;2023-07-30T07:43:31;42.10;63.80
37222;DHT22;23119;51.842;-2.230;2023-07-30T07:45:57;42.20;63.30
37222;DHT22;23119;51.842;-2.230;2023-07-30T07:48:28;42.40;62.90
37222;DHT22;23119;51.842;-2.230;2023-07-30T07:50:53;42.80;62.20
37222;DHT22;23119;51.842;-2.230;2023-07-30T07:53:19;42.00;62.40
37222;DHT22;23119;51.842;-2.230;2023-07-30T07:55:47;41.60;62.60
37222;DHT22;23119;51.842;-2.230;2023-07-30T07:58:15;41.80;61.80
37222;DHT22;23119;51.842;-2.230;2023-07-30T08:00:44;41.80;62.70
37222;DHT22;23119;51.842;-2.230;2023-07-30T08:03:10;41.40;61.50
37222;DHT22;23119;51.842;-2.230;2023-07-30T08:05:38;41.40;61.50
37222;DHT22;23119;51.842;-2.230;2023-07-30T08:08:03;41.40;61.40
37222;DHT22;23119;51.842;-2.230;2023-07-30T08:10:32;41.20;61.00
37222;DHT22;23119;51.842;-2.230;2023-07-30T08:12:57;41.30;60.80
37222;DHT22;23119;51.842;-2.230;2023-07-30T08:15:26;41.60;60.80
37222;DHT22;23119;51.842;-2.230;2023-07-30T08:18:00;41.60;60.70
37222;DHT22;23119;51.842;-2.230;2023-07-30T08:20:31;41.50;60.40
37222;DHT22;23119;51.842;-2.230;2023-07-30T08:23:02;41.40;60.00
37222;DHT22;23119;51.842;-2.230;2023-07-30T08:25:28;41.10;59.80
37222;DHT22;23119;51.842;-2.230;2023-07-30T08:27:54;40.70;60.30
37222;DHT22;23119;51.842;-2.230;2023-07-30T08:30:24;40.50;61.20
37222;DHT22;23119;51.842;-2.230;2023-07-30T08:32:52;40.00;61.40
37222;DHT22;23119;51.842;-2.230;2023-07-30T08:35:23;39.50;61.80
37222;DHT22;23119;51.842;-2.230;2023-07-30T08:37:49;38.90;62.30
37222;DHT22;23119;51.842;-2.230;2023-07-30T08:40:17;38.30;62.90
37222;DHT22;23119;51.842;-2.230;2023-07-30T08:42:43;37.60;63.70
37222;DHT22;23119;51.842;-2.230;2023-07-30T08:45:09;37.00;64.20
37222;DHT22;23119;51.842;-2.230;2023-07-30T08:47:35;36.40;64.90
37222;DHT22;23119;51.842;-2.230;2023-07-30T08:50:05;35.40;65.80
37222;DHT22;23119;51.842;-2.230;2023-07-30T08:52:32;34.50;67.10
37222;DHT22;23119;51.842;-2.230;2023-07-30T08:55:10;34.00;68.20
37222;DHT22;23119;51.842;-2.230;2023-07-30T08:57:40;33.60;68.80
37222;DHT22;23119;51.842;-2.230;2023-07-30T09:00:10;33.20;69.70
37222;DHT22;23119;51.842;-2.230;2023-07-30T09:02:52;32.90;70.10
37222;DHT22;23119;51.842;-2.230;2023-07-30T09:05:20;32.50;69.50
37222;DHT22;23119;51.842;-2.230;2023-07-30T09:07:49;32.10;70.20
37222;DHT22;23119;51.842;-2.230;2023-07-30T09:10:20;31.40;70.60
37222;DHT22;23119;51.842;-2.230;2023-07-30T09:12:55;30.60;71.60
37222;DHT22;23119;51.842;-2.230;2023-07-30T09:15:44;29.60;73.10
37222;DHT22;23119;51.842;-2.230;2023-07-30T09:18:17;28.60;76.00
37222;DHT22;23119;51.842;-2.230;2023-07-30T09:20:44;27.90;77.10
37222;DHT22;23119;51.842;-2.230;2023-07-30T09:23:10;27.40;78.40
37222;DHT22;23119;51.842;-2.230;2023-07-30T09:25:39;26.80;79.80
37222;DHT22;23119;51.842;-2.230;2023-07-30T09:28:10;26.50;81.70
37222;DHT22;23119;51.842;-2.230;2023-07-30T09:30:36;26.50;84.20
37222;DHT22;23119;51.842;-2.230;2023-07-30T09:33:01;26.80;84.50
37222;DHT22;23119;51.842;-2.230;2023-07-30T09:35:27;26.90;84.90
37222;DHT22;23119;51.842;-2.230;2023-07-30T09:38:01;26.90;85.50
37222;DHT22;23119;51.842;-2.230;2023-07-30T09:40:46;26.80;86.50
37222;DHT22;23119;51.842;-2.230;2023-07-30T09:43:21;26.80;87.70
37222;DHT22;23119;51.842;-2.230;2023-07-30T09:45:53;26.70;86.70
37222;DHT22;23119;51.842;-2.230;2023-07-30T09:48:19;26.50;87.20
37222;DHT22;23119;51.842;-2.230;2023-07-30T09:50:47;26.40;88.20
37222;DHT22;23119;51.842;-2.230;2023-07-30T09:53:13;26.10;88.70
37222;DHT22;23119;51.842;-2.230;2023-07-30T09:55:41;25.90;89.80
37222;DHT22;23119;51.842;-2.230;2023-07-30T09:58:06;25.60;90.40
37222;DHT22;23119;51.842;-2.230;2023-07-30T10:00:40;25.30;90.80
37222;DHT22;23119;51.842;-2.230;2023-07-30T10:03:06;24.90;91.70
37222;DHT22;23119;51.842;-2.230;2023-07-30T10:05:33;24.70;92.10
37222;DHT22;23119;51.842;-2.230;2023-07-30T10:08:23;24.40;92.70
37222;DHT22;23119;51.842;-2.230;2023-07-30T10:10:54;24.10;93.70
37222;DHT22;23119;51.842;-2.230;2023-07-30T10:13:25;24.00;94.40
37222;DHT22;23119;51.842;-2.230;2023-07-30T10:15:51;24.00;94.80
37222;DHT22;23119;51.842;-2.230;2023-07-30T10:18:19;23.90;95.20
37222;DHT22;23119;51.842;-2.230;2023-07-30T10:20:53;23.80;95.30
37222;DHT22;23119;51.842;-2.230;2023-07-30T10:23:20;23.80;95.70
37222;DHT22;23119;51.842;-2.230;2023-07-30T10:25:49;23.80;96.00
37222;DHT22;23119;51.842;-2.230;2023-07-30T10:30:59;23.60;96.80
37222;DHT22;23119;51.842;-2.230;2023-07-30T10:36:14;23.60;97.70
37222;DHT22;23119;51.842;-2.230;2023-07-30T10:38:41;23.60;97.70
37222;DHT22;23119;51.842;-2.230;2023-07-30T10:41:09;23.60;98.00
37222;DHT22;23119;51.842;-2.230;2023-07-30T10:43:39;23.40;98.30
37222;DHT22;23119;51.842;-2.230;2023-07-30T10:46:05;23.40;98.90
37222;DHT22;23119;51.842;-2.230;2023-07-30T10:48:34;23.20;99.10
37222;DHT22;23119;51.842;-2.230;2023-07-30T10:51:05;23.10;99.50
37222;DHT22;23119;51.842;-2.230;2023-07-30T10:53:31;22.90;99.90
37222;DHT22;23119;51.842;-2.230;2023-07-30T10:56:06;22.80;99.90
37222;DHT22;23119;51.842;-2.230;2023-07-30T10:58:38;22.70;99.90
37222;DHT22;23119;51.842;-2.230;2023-07-30T11:01:06;22.50;99.90
37222;DHT22;23119;51.842;-2.230;2023-07-30T11:03:35;22.40;99.90
37222;DHT22;23119;51.842;-2.230;2023-07-30T11:06:06;22.40;99.90
37222;DHT22;23119;51.842;-2.230;2023-07-30T11:08:39;22.20;99.90
37222;DHT22;23119;51.842;-2.230;2023-07-30T11:11:10;21.90;99.90
37222;DHT22;23119;51.842;-2.230;2023-07-30T11:13:47;21.90;99.90
37222;DHT22;23119;51.842;-2.230;2023-07-30T11:16:16;21.90;99.90
37222;DHT22;23119;51.842;-2.230;2023-07-30T11:18:45;21.90;99.90
37222;DHT22;23119;51.842;-2.230;2023-07-30T11:21:15;21.80;99.90
37222;DHT22;23119;51.842;-2.230;2023-07-30T11:23:45;21.70;99.90
37222;DHT22;23119;51.842;-2.230;2023-07-30T11:26:16;21.50;99.90
37222;DHT22;23119;51.842;-2.230;2023-07-30T11:28:42;21.40;99.90
37222;DHT22;23119;51.842;-2.230;2023-07-30T11:31:28;21.30;99.90
37222;DHT22;23119;51.842;-2.230;2023-07-30T11:33:54;21.20;99.90
37222;DHT22;23119;51.842;-2.230;2023-07-30T11:36:22;21.10;99.90
37222;DHT22;23119;51.842;-2.230;2023-07-30T11:38:49;21.10;99.90
37222;DHT22;23119;51.842;-2.230;2023-07-30T11:41:18;21.10;99.90
37222;DHT22;23119;51.842;-2.230;2023-07-30T11:43:45;21.10;99.90
37222;DHT22;23119;51.842;-2.230;2023-07-30T11:46:18;21.00;99.90
37222;DHT22;23119;51.842;-2.230;2023-07-30T11:48:49;20.90;99.90
37222;DHT22;23119;51.842;-2.230;2023-07-30T11:51:26;20.90;99.90
37222;DHT22;23119;51.842;-2.230;2023-07-30T11:53:59;20.90;99.90
37222;DHT22;23119;51.842;-2.230;2023-07-30T11:56:31;20.80;99.90
37222;DHT22;23119;51.842;-2.230;2023-07-30T11:59:00;20.80;99.90
37222;DHT22;23119;51.842;-2.230;2023-07-30T12:01:30;20.70;99.90
37222;DHT22;23119;51.842;-2.230;2023-07-30T12:03:57;20.70;99.90
37222;DHT22;23119;51.842;-2.230;2023-07-30T12:06:38;20.70;99.90
37222;DHT22;23119;51.842;-2.230;2023-07-30T12:11:50;20.80;99.90
37222;DHT22;23119;51.842;-2.230;2023-07-30T12:14:22;20.70;99.90
37222;DHT22;23119;51.842;-2.230;2023-07-30T12:16:54;20.80;99.90
37222;DHT22;23119;51.842;-2.230;2023-07-30T12:19:21;20.80;99.90
37222;DHT22;23119;51.842;-2.230;2023-07-30T12:21:49;20.90;99.90
37222;DHT22;23119;51.842;-2.230;2023-07-30T12:24:18;20.90;99.90
37222;DHT22;23119;51.842;-2.230;2023-07-30T12:26:43;20.90;99.90
37222;DHT22;23119;51.842;-2.230;2023-07-30T12:29:11;20.80;99.90
37222;DHT22;23119;51.842;-2.230;2023-07-30T12:31:42;20.90;99.90
37222;DHT22;23119;51.842;-2.230;2023-07-30T12:34:09;20.80;99.90
37222;DHT22;23119;51.842;-2.230;2023-07-30T12:36:34;20.90;99.90
37222;DHT22;23119;51.842;-2.230;2023-07-30T12:39:00;20.90;99.90
37222;DHT22;23119;51.842;-2.230;2023-07-30T12:41:29;20.90;99.90
37222;DHT22;23119;51.842;-2.230;2023-07-30T12:43:58;20.90;99.90
37222;DHT22;23119;51.842;-2.230;2023-07-30T12:46:29;20.90;99.90
37222;DHT22;23119;51.842;-2.230;2023-07-30T12:49:03;20.90;99.90
37222;DHT22;23119;51.842;-2.230;2023-07-30T12:51:33;21.00;99.90
37222;DHT22;23119;51.842;-2.230;2023-07-30T12:54:04;21.00;99.90
37222;DHT22;23119;51.842;-2.230;2023-07-30T12:56:33;21.00;99.90
37222;DHT22;23119;51.842;-2.230;2023-07-30T12:58:59;21.10;99.90
37222;DHT22;23119;51.842;-2.230;2023-07-30T13:01:24;21.20;99.90
37222;DHT22;23119;51.842;-2.230;2023-07-30T13:03:58;21.40;99.90
37222;DHT22;23119;51.842;-2.230;2023-07-30T13:06:30;21.50;99.90
37222;DHT22;23119;51.842;-2.230;2023-07-30T13:08:58;21.50;99.90
37222;DHT22;23119;51.842;-2.230;2023-07-30T13:11:24;21.50;99.90
37222;DHT22;23119;51.842;-2.230;2023-07-30T13:13:50;21.50;99.90
37222;DHT22;23119;51.842;-2.230;2023-07-30T13:16:16;21.70;99.90
37222;DHT22;23119;51.842;-2.230;2023-07-30T13:18:44;21.80;99.90
37222;DHT22;23119;51.842;-2.230;2023-07-30T13:21:12;22.00;99.90
37222;DHT22;23119;51.842;-2.230;2023-07-30T13:23:41;22.10;99.90
37222;DHT22;23119;51.842;-2.230;2023-07-30T13:26:06;22.30;99.90
37222;DHT22;23119;51.842;-2.230;2023-07-30T13:28:36;22.20;99.90
37222;DHT22;23119;51.842;-2.230;2023-07-30T13:31:02;22.40;99.90
37222;DHT22;23119;51.842;-2.230;2023-07-30T13:33:30;22.30;99.90
37222;DHT22;23119;51.842;-2.230;2023-07-30T13:35:59;22.30;99.90
37222;DHT22;23119;51.842;-2.230;2023-07-30T13:38:27;22.10;99.90
37222;DHT22;23119;51.842;-2.230;2023-07-30T13:41:01;22.10;99.90
37222;DHT22;23119;51.842;-2.230;2023-07-30T13:43:29;22.10;99.90
37222;DHT22;23119;51.842;-2.230;2023-07-30T13:45:57;22.10;99.90
37222;DHT22;23119;51.842;-2.230;2023-07-30T13:48:26;22.00;99.90
37222;DHT22;23119;51.842;-2.230;2023-07-30T13:50:52;22.00;99.90
37222;DHT22;23119;51.842;-2.230;2023-07-30T13:53:18;22.00;99.90
37222;DHT22;23119;51.842;-2.230;2023-07-30T13:55:46;22.00;99.90
37222;DHT22;23119;51.842;-2.230;2023-07-30T13:58:12;22.00;99.90
37222;DHT22;23119;51.842;-2.230;2023-07-30T14:00:40;22.00;99.90
37222;DHT22;23119;51.842;-2.230;2023-07-30T14:03:09;22.00;99.90
37222;DHT22;23119;51.842;-2.230;2023-07-30T14:05:39;21.80;99.90
37222;DHT22;23119;51.842;-2.230;2023-07-30T14:08:04;21.70;99.90
37222;DHT22;23119;51.842;-2.230;2023-07-30T14:10:32;21.60;99.90
37222;DHT22;23119;51.842;-2.230;2023-07-30T14:13:01;21.60;99.90
37222;DHT22;23119;51.842;-2.230;2023-07-30T14:15:26;21.50;99.90
37222;DHT22;23119;51.842;-2.230;2023-07-30T14:17:52;21.50;99.90
37222;DHT22;23119;51.842;-2.230;2023-07-30T14:20:28;21.40;99.90
37222;DHT22;23119;51.842;-2.230;2023-07-30T14:22:57;21.40;99.90
37222;DHT22;23119;51.842;-2.230;2023-07-30T14:25:22;21.30;99.90
37222;DHT22;23119;51.842;-2.230;2023-07-30T14:27:57;21.20;99.90
37222;DHT22;23119;51.842;-2.230;2023-07-30T14:30:28;21.10;99.90
37222;DHT22;23119;51.842;-2.230;2023-07-30T14:32:56;21.00;99.90
37222;DHT22;23119;51.842;-2.230;2023-07-30T14:35:22;21.00;99.90
37222;DHT22;23119;51.842;-2.230;2023-07-30T14:37:50;21.00;99.90
37222;DHT22;23119;51.842;-2.230;2023-07-30T14:40:16;21.00;99.90
37222;DHT22;23119;51.842;-2.230;2023-07-30T14:42:47;20.90;99.90
37222;DHT22;23119;51.842;-2.230;2023-07-30T14:45:18;20.90;99.90
37222;DHT22;23119;51.842;-2.230;2023-07-30T14:47:44;20.90;99.90
37222;DHT22;23119;51.842;-2.230;2023-07-30T14:50:10;20.90;99.90
37222;DHT22;23119;51.842;-2.230;2023-07-30T14:52:36;20.90;99.90
37222;DHT22;23119;51.842;-2.230;2023-07-30T14:55:01;20.80;99.90
37222;DHT22;23119;51.842;-2.230;2023-07-30T14:57:30;20.90;99.90
37222;DHT22;23119;51.842;-2.230;2023-07-30T15:00:01;20.90;99.90
37222;DHT22;23119;51.842;-2.230;2023-07-30T15:02:28;20.90;99.90
37222;DHT22;23119;51.842;-2.230;2023-07-30T15:04:54;20.80;99.90
37222;DHT22;23119;51.842;-2.230;2023-07-30T15:07:21;20.70;99.90
37222;DHT22;23119;51.842;-2.230;2023-07-30T15:09:54;20.70;99.90
37222;DHT22;23119;51.842;-2.230;2023-07-30T15:12:27;20.60;99.90
37222;DHT22;23119;51.842;-2.230;2023-07-30T15:14:52;20.70;99.90
37222;DHT22;23119;51.842;-2.230;2023-07-30T15:17:18;20.60;99.90
37222;DHT22;23119;51.842;-2.230;2023-07-30T15:19:47;20.60;99.90
37222;DHT22;23119;51.842;-2.230;2023-07-30T15:22:13;20.50;99.90
37222;DHT22;23119;51.842;-2.230;2023-07-30T15:24:39;20.50;99.90
37222;DHT22;23119;51.842;-2.230;2023-07-30T15:27:05;20.40;99.90
37222;DHT22;23119;51.842;-2.230;2023-07-30T15:29:30;20.30;99.90